createdAt,value
2018-04-30T00:02:24.844Z,17.86
2018-04-30T00:05:28.197Z,17.80
2018-04-30T00:08:32.171Z,17.82
2018-04-30T00:11:35.509Z,17.76
2018-04-30T00:14:38.890Z,17.67
2018-04-30T00:17:42.245Z,17.57
2018-04-30T00:20:45.629Z,17.62
2018-04-30T00:23:49.001Z,17.51
2018-04-30T00:26:52.359Z,17.47
2018-04-30T00:29:55.780Z,17.36
2018-04-30T00:32:58.997Z,17.40
2018-04-30T00:36:03.224Z,17.41
2018-04-30T00:39:06.660Z,17.37
2018-04-30T00:42:10.023Z,17.26
2018-04-30T00:45:13.291Z,17.28
2018-04-30T00:48:16.624Z,17.24
2018-04-30T00:51:19.805Z,17.19
2018-04-30T00:54:32.315Z,17.18
2018-04-30T00:57:35.755Z,17.03
2018-04-30T01:00:39.443Z,17.01
2018-04-30T01:03:42.982Z,16.97
2018-04-30T01:06:46.337Z,17.00
2018-04-30T01:09:49.635Z,16.87
2018-04-30T01:12:52.949Z,16.75
2018-04-30T01:15:56.357Z,16.81
2018-04-30T01:18:59.730Z,16.73
2018-04-30T01:22:03.856Z,16.77
2018-04-30T01:25:07.248Z,16.78
2018-04-30T01:28:10.552Z,16.75
2018-04-30T01:31:13.831Z,16.77
2018-04-30T01:34:17.257Z,16.65
2018-04-30T01:37:20.483Z,16.65
2018-04-30T01:40:23.756Z,16.58
2018-04-30T01:43:27.135Z,16.57
2018-04-30T01:46:30.467Z,16.54
2018-04-30T01:49:34.436Z,16.51
2018-04-30T01:52:37.743Z,16.41
2018-04-30T01:55:41.030Z,16.44
2018-04-30T01:58:44.440Z,16.39
2018-04-30T02:01:47.835Z,16.40
2018-04-30T02:04:51.136Z,16.36
2018-04-30T02:07:54.412Z,16.36
2018-04-30T02:10:57.727Z,16.31
2018-04-30T02:14:01.015Z,16.26
2018-04-30T02:17:04.432Z,16.29
2018-04-30T02:20:07.893Z,16.27
2018-04-30T02:23:11.161Z,16.19
2018-04-30T02:26:14.427Z,16.23
2018-04-30T02:29:17.820Z,16.21
2018-04-30T02:32:21.111Z,16.13
2018-04-30T02:35:24.361Z,16.15
2018-04-30T02:38:27.704Z,16.13
2018-04-30T02:41:31.043Z,16.16
2018-04-30T02:44:34.451Z,16.13
2018-04-30T02:47:37.813Z,16.10
2018-04-30T02:50:41.384Z,16.06
2018-04-30T02:53:45.658Z,15.91
2018-04-30T02:56:49.039Z,15.79
2018-04-30T02:59:52.441Z,15.65
2018-04-30T03:02:55.745Z,15.63
2018-04-30T03:05:58.959Z,15.51
2018-04-30T03:09:03.061Z,15.44
2018-04-30T03:12:06.374Z,15.42
2018-04-30T03:15:09.644Z,15.47
2018-04-30T03:18:13.058Z,15.47
2018-04-30T03:21:16.337Z,15.34
2018-04-30T03:24:19.664Z,15.36
2018-04-30T03:27:23.093Z,15.36
2018-04-30T03:30:26.332Z,15.32
2018-04-30T03:33:29.618Z,15.22
2018-04-30T03:36:33.943Z,15.10
2018-04-30T03:39:37.256Z,15.11
2018-04-30T03:42:40.522Z,15.05
2018-04-30T03:45:43.833Z,14.98
2018-04-30T03:48:47.124Z,14.88
2018-04-30T03:51:50.321Z,14.74
2018-04-30T03:54:53.808Z,14.81
2018-04-30T03:57:57.123Z,14.82
2018-04-30T04:02:14.765Z,14.78
2018-04-30T04:06:30.912Z,14.71
2018-04-30T04:09:35.362Z,14.53
2018-04-30T04:12:38.799Z,14.40
2018-04-30T04:15:42.077Z,14.44
2018-04-30T04:18:45.472Z,14.47
2018-04-30T04:21:48.793Z,14.24
2018-04-30T04:24:52.123Z,14.16
2018-04-30T04:27:55.392Z,14.10
2018-04-30T04:30:58.746Z,14.12
2018-04-30T04:34:02.576Z,14.08
2018-04-30T04:37:05.837Z,14.08
2018-04-30T04:40:09.173Z,14.07
2018-04-30T04:43:12.552Z,14.13
2018-04-30T04:46:15.800Z,14.06
2018-04-30T04:49:19.201Z,14.10
2018-04-30T04:52:22.612Z,13.98
2018-04-30T04:55:25.984Z,14.05
2018-04-30T04:58:29.285Z,13.98
2018-04-30T05:01:33.174Z,13.99
2018-04-30T05:04:36.540Z,13.85
2018-04-30T05:07:39.716Z,13.79
2018-04-30T05:10:43.231Z,13.78
2018-04-30T05:13:46.591Z,13.79
2018-04-30T05:16:49.940Z,13.78
2018-04-30T05:19:53.335Z,13.81
2018-04-30T05:22:56.839Z,13.76
2018-04-30T05:26:00.048Z,13.72
2018-04-30T05:29:03.912Z,13.80
2018-04-30T05:32:07.107Z,13.86
2018-04-30T05:35:10.481Z,13.86
2018-04-30T05:38:13.992Z,13.89
2018-04-30T05:41:17.249Z,13.86
2018-04-30T05:44:20.583Z,13.95
2018-04-30T05:47:23.907Z,13.98
2018-04-30T05:50:27.063Z,13.94
2018-04-30T05:53:31.798Z,13.94
2018-04-30T05:56:35.116Z,13.97
2018-04-30T05:59:38.339Z,14.04
2018-04-30T06:02:41.611Z,14.04
2018-04-30T06:05:44.979Z,14.04
2018-04-30T06:08:48.248Z,14.01
2018-04-30T06:11:51.627Z,14.01
2018-04-30T06:14:55.025Z,14.12
2018-04-30T06:17:58.297Z,14.02
2018-04-30T06:21:01.642Z,14.03
2018-04-30T06:24:05.102Z,14.02
2018-04-30T06:27:08.340Z,14.10
2018-04-30T06:30:11.591Z,14.03
2018-04-30T06:33:15.356Z,14.05
2018-04-30T06:36:18.716Z,14.02
2018-04-30T06:39:21.858Z,13.98
2018-04-30T06:42:25.215Z,14.10
2018-04-30T06:45:28.512Z,14.11
2018-04-30T06:48:31.740Z,14.22
2018-04-30T06:51:35.796Z,14.26
2018-04-30T06:54:39.092Z,14.29
2018-04-30T06:57:42.393Z,14.24
2018-04-30T07:00:45.809Z,14.48
2018-04-30T07:03:49.120Z,14.76
2018-04-30T07:06:52.641Z,14.76
2018-04-30T07:09:56.019Z,14.71
2018-04-30T07:12:59.324Z,14.66
2018-04-30T07:16:02.591Z,14.62
2018-04-30T07:19:07.303Z,14.85
2018-04-30T07:22:10.626Z,14.88
2018-04-30T07:25:13.912Z,15.08
2018-04-30T07:28:17.318Z,15.08
2018-04-30T07:31:20.765Z,14.94
2018-04-30T07:34:24.100Z,15.06
2018-04-30T07:37:27.520Z,15.40
2018-04-30T07:40:30.910Z,15.51
2018-04-30T07:43:34.660Z,15.43
2018-04-30T07:46:38.016Z,15.52
2018-04-30T07:49:41.408Z,15.86
2018-04-30T07:52:44.703Z,15.73
2018-04-30T07:55:47.993Z,15.76
2018-04-30T07:58:51.302Z,15.49
2018-04-30T08:01:54.608Z,15.54
2018-04-30T08:04:57.856Z,15.69
2018-04-30T08:08:01.207Z,15.60
2018-04-30T08:11:05.316Z,15.50
2018-04-30T08:14:08.602Z,15.41
2018-04-30T08:17:11.905Z,15.60
2018-04-30T08:20:15.137Z,16.12
2018-04-30T08:23:18.376Z,16.29
2018-04-30T08:26:21.677Z,16.22
2018-04-30T08:29:25.256Z,16.73
2018-04-30T08:32:28.591Z,16.72
2018-04-30T08:35:31.987Z,16.81
2018-04-30T08:38:36.673Z,16.66
2018-04-30T08:41:39.939Z,16.82
2018-04-30T08:44:43.716Z,17.40
2018-04-30T08:47:48.153Z,17.56
2018-04-30T08:50:52.079Z,17.45
2018-04-30T08:53:55.400Z,17.29
2018-04-30T08:56:58.869Z,16.89
2018-04-30T09:00:02.314Z,16.78
2018-04-30T09:03:07.065Z,17.08
2018-04-30T09:06:10.404Z,17.20
2018-04-30T09:09:13.840Z,17.48
2018-04-30T09:12:17.200Z,17.28
2018-04-30T09:15:20.398Z,17.06
2018-04-30T09:16:33.260Z,19.39
2018-04-30T09:18:24.487Z,16.84
2018-04-30T09:18:37.779Z,19.43
2018-04-30T09:21:27.844Z,16.98
2018-04-30T09:21:35.197Z,19.48
2018-04-30T09:23:32.191Z,19.48
2018-04-30T09:24:31.146Z,17.06
2018-04-30T09:24:32.337Z,19.50
2018-04-30T09:25:32.420Z,19.47
2018-04-30T09:26:32.362Z,19.46
2018-04-30T09:27:32.304Z,19.46
2018-04-30T09:27:34.270Z,17.19
2018-04-30T09:28:32.341Z,19.46
2018-04-30T09:29:32.301Z,19.46
2018-04-30T09:30:37.567Z,17.49
2018-04-30T09:32:07.962Z,19.54
2018-04-30T09:33:02.565Z,19.53
2018-04-30T09:33:42.038Z,17.55
2018-04-30T09:34:02.279Z,19.54
2018-04-30T09:35:03.383Z,19.53
2018-04-30T09:36:02.606Z,19.52
2018-04-30T09:36:47.267Z,18.07
2018-04-30T09:37:02.683Z,19.52
2018-04-30T09:37:51.534Z,19.51
2018-04-30T09:38:51.388Z,19.51
2018-04-30T09:39:50.528Z,18.17
2018-04-30T09:39:51.644Z,19.49
2018-04-30T09:40:51.607Z,19.48
2018-04-30T09:41:51.694Z,19.47
2018-04-30T09:42:51.458Z,19.46
2018-04-30T09:42:54.067Z,18.15
2018-04-30T09:45:58.370Z,18.09
2018-04-30T09:46:44.136Z,19.58
2018-04-30T09:47:44.164Z,19.60
2018-04-30T09:49:01.558Z,18.03
2018-04-30T09:52:04.815Z,18.36
2018-04-30T09:55:08.100Z,18.38
2018-04-30T09:58:11.476Z,18.20
2018-04-30T10:01:15.051Z,18.36
2018-04-30T10:04:18.312Z,18.72
2018-04-30T10:07:22.315Z,18.65
2018-04-30T10:10:25.540Z,18.56
2018-04-30T10:13:28.687Z,18.20
2018-04-30T10:16:32.467Z,17.91
2018-04-30T10:19:35.784Z,17.98
2018-04-30T10:22:39.188Z,18.47
2018-04-30T10:25:43.132Z,18.48
2018-04-30T10:28:46.409Z,18.51
2018-04-30T10:31:49.634Z,18.57
2018-04-30T10:34:52.850Z,18.78
2018-04-30T10:37:56.241Z,19.19
2018-04-30T10:40:59.517Z,19.08
2018-04-30T10:44:02.999Z,19.12
2018-04-30T10:47:06.456Z,19.22
2018-04-30T10:50:09.793Z,19.48
2018-04-30T10:53:13.132Z,19.55
2018-04-30T10:56:16.292Z,19.75
2018-04-30T10:59:19.507Z,19.66
2018-04-30T11:02:22.970Z,19.08
2018-04-30T11:05:26.302Z,18.72
2018-04-30T11:08:29.756Z,18.65
2018-04-30T11:11:33.084Z,18.95
2018-04-30T11:14:36.386Z,18.72
2018-04-30T11:17:39.777Z,18.52
2018-04-30T11:20:42.909Z,18.33
2018-04-30T11:23:46.188Z,18.12
2018-04-30T11:26:50.917Z,17.99
2018-04-30T11:29:54.189Z,18.24
2018-04-30T11:32:57.495Z,18.90
2018-04-30T11:36:00.733Z,19.20
2018-04-30T11:39:04.748Z,19.15
2018-04-30T11:42:08.031Z,19.38
2018-04-30T11:45:11.379Z,19.26
2018-04-30T11:48:14.691Z,19.39
2018-04-30T11:51:17.875Z,19.18
2018-04-30T11:54:22.386Z,19.38
2018-04-30T11:57:25.711Z,19.48
2018-04-30T12:00:28.963Z,19.40
2018-04-30T12:03:32.256Z,19.59
2018-04-30T12:06:35.604Z,19.54
2018-04-30T12:09:38.997Z,19.39
2018-04-30T12:12:42.231Z,19.25
2018-04-30T12:15:45.525Z,19.24
2018-04-30T12:18:48.782Z,19.01
2018-04-30T12:21:52.941Z,18.90
2018-04-30T12:24:56.268Z,19.09
2018-04-30T12:27:59.733Z,19.31
2018-04-30T12:31:02.983Z,19.43
2018-04-30T12:34:06.619Z,19.40
2018-04-30T12:37:10.685Z,19.20
2018-04-30T12:40:14.207Z,19.58
2018-04-30T12:43:18.633Z,19.77
2018-04-30T12:46:22.017Z,19.87
2018-04-30T12:49:25.410Z,19.92
2018-04-30T12:52:28.664Z,20.18
2018-04-30T12:55:32.048Z,19.85
2018-04-30T12:58:35.373Z,19.89
2018-04-30T13:01:38.825Z,19.88
2018-04-30T13:04:42.235Z,20.17
2018-04-30T13:07:45.754Z,20.36
2018-04-30T13:10:48.948Z,19.95
2018-04-30T13:13:52.334Z,19.85
2018-04-30T13:16:55.650Z,19.72
2018-04-30T13:19:58.856Z,19.68
2018-04-30T13:23:02.109Z,19.65
2018-04-30T13:26:05.405Z,19.68
2018-04-30T13:29:08.831Z,19.97
2018-04-30T13:32:12.120Z,20.16
2018-04-30T13:35:16.360Z,20.37
2018-04-30T13:38:19.731Z,20.38
2018-04-30T13:41:22.996Z,20.70
2018-04-30T13:44:26.307Z,20.14
2018-04-30T13:47:29.472Z,20.30
2018-04-30T13:50:32.819Z,20.39
2018-04-30T13:53:36.140Z,20.36
2018-04-30T13:56:39.431Z,20.70
2018-04-30T13:59:43.522Z,20.08
2018-04-30T14:02:47.165Z,19.63
2018-04-30T14:05:50.725Z,20.17
2018-04-30T14:08:54.040Z,20.27
2018-04-30T14:11:57.448Z,20.35
2018-04-30T14:15:00.823Z,20.18
2018-04-30T14:18:04.159Z,20.25
2018-04-30T14:21:07.350Z,20.48
2018-04-30T14:24:12.705Z,20.24
2018-04-30T14:27:16.119Z,20.30
2018-04-30T14:30:19.393Z,20.22
2018-04-30T14:33:22.769Z,20.20
2018-04-30T14:36:26.107Z,20.19
2018-04-30T14:39:29.426Z,20.41
2018-04-30T14:42:32.591Z,20.47
2018-04-30T14:45:35.905Z,20.67
2018-04-30T14:48:39.132Z,20.39
2018-04-30T14:51:42.475Z,20.53
2018-04-30T14:54:45.868Z,20.72
2018-04-30T14:57:49.080Z,20.88
2018-04-30T15:00:52.517Z,20.82
2018-04-30T15:03:55.861Z,20.56
2018-04-30T15:06:59.292Z,20.61
2018-04-30T15:10:03.481Z,20.39
2018-04-30T15:13:06.727Z,20.51
2018-04-30T15:16:10.603Z,20.68
2018-04-30T15:19:14.286Z,20.73
2018-04-30T15:22:17.793Z,20.85
2018-04-30T15:25:21.716Z,20.99
2018-04-30T15:28:25.270Z,20.84
2018-04-30T15:31:29.311Z,20.65
2018-04-30T15:34:33.585Z,20.60
2018-04-30T15:37:38.324Z,20.67
2018-04-30T15:40:41.816Z,20.55
2018-04-30T15:43:45.365Z,20.52
2018-04-30T15:46:48.744Z,20.60
2018-04-30T15:49:52.327Z,20.36
2018-04-30T15:52:55.696Z,19.62
2018-04-30T15:55:59.553Z,19.14
2018-04-30T15:59:02.891Z,18.84
2018-04-30T16:02:06.292Z,18.73
2018-04-30T16:05:09.532Z,18.60
2018-04-30T16:08:12.792Z,18.43
2018-04-30T16:11:16.201Z,17.56
2018-04-30T16:14:20.120Z,17.24
2018-04-30T16:17:23.591Z,17.52
2018-04-30T16:20:27.202Z,17.83
2018-04-30T16:23:32.048Z,18.28
2018-04-30T16:26:37.670Z,18.48
2018-04-30T16:29:41.591Z,17.97
2018-04-30T16:32:45.186Z,17.80
2018-04-30T16:35:48.798Z,18.07
2018-04-30T16:38:52.268Z,18.13
2018-04-30T16:41:56.183Z,18.32
2018-04-30T16:45:00.842Z,18.29
2018-04-30T16:48:04.376Z,18.27
2018-04-30T16:51:07.846Z,18.11
2018-04-30T16:54:11.796Z,18.02
2018-04-30T16:57:15.356Z,17.84
2018-04-30T17:00:18.700Z,17.48
2018-04-30T17:03:22.160Z,17.15
2018-04-30T17:06:25.600Z,17.19
2018-04-30T17:09:29.103Z,17.15
2018-04-30T17:12:32.282Z,17.15
2018-04-30T17:15:35.658Z,17.11
2018-04-30T17:18:39.053Z,17.14
2018-04-30T17:21:42.388Z,17.03
2018-04-30T17:24:46.500Z,17.03
2018-04-30T17:27:49.834Z,17.02
2018-04-30T17:30:53.165Z,16.99
2018-04-30T17:33:56.503Z,16.97
2018-04-30T17:36:59.832Z,16.88
2018-04-30T17:40:03.231Z,16.85
2018-04-30T17:43:06.418Z,16.90
2018-04-30T17:46:10.829Z,16.83
2018-04-30T17:49:15.511Z,16.70
2018-04-30T17:52:18.814Z,16.48
2018-04-30T17:55:22.155Z,16.58
2018-04-30T17:58:25.371Z,16.39
2018-04-30T18:01:28.751Z,16.28
2018-04-30T18:04:32.019Z,16.17
2018-04-30T18:07:35.334Z,16.05
2018-04-30T18:10:38.749Z,16.18
2018-04-30T18:13:43.672Z,16.05
2018-04-30T18:16:47.770Z,15.96
2018-04-30T18:19:51.053Z,15.97
2018-04-30T18:22:59.771Z,15.73
2018-04-30T18:26:03.120Z,15.67
2018-04-30T18:29:06.478Z,15.69
2018-04-30T18:32:09.728Z,15.59
2018-04-30T18:35:13.075Z,15.55
2018-04-30T18:38:17.013Z,15.53
2018-04-30T18:41:20.363Z,15.58
2018-04-30T18:44:23.766Z,15.48
2018-04-30T18:47:27.092Z,15.48
2018-04-30T18:50:30.408Z,15.55
2018-04-30T18:53:34.631Z,15.46
2018-04-30T18:56:37.923Z,15.41
2018-04-30T18:59:41.324Z,15.31
2018-04-30T19:02:44.591Z,15.29
2018-04-30T19:05:47.904Z,15.23
2018-04-30T19:08:51.196Z,15.27
2018-04-30T19:11:54.550Z,15.20
2018-04-30T19:14:58.646Z,15.27
2018-04-30T19:18:02.036Z,15.45
2018-04-30T19:21:05.311Z,15.35
2018-04-30T19:24:08.698Z,15.26
2018-04-30T19:27:12.120Z,15.25
2018-04-30T19:30:15.324Z,15.24
2018-04-30T19:33:18.672Z,15.28
2018-04-30T19:36:21.988Z,15.38
2018-04-30T19:39:25.442Z,15.36
2018-04-30T19:42:28.814Z,15.25
2018-04-30T19:45:32.575Z,15.13
2018-04-30T19:48:35.659Z,15.10
2018-04-30T19:51:38.915Z,15.19
2018-04-30T19:54:42.312Z,15.22
2018-04-30T19:57:45.692Z,15.05
2018-04-30T20:00:48.908Z,14.93
2018-04-30T20:03:52.271Z,14.89
2018-04-30T20:06:55.638Z,14.74
2018-04-30T20:09:58.987Z,14.71
2018-04-30T20:13:04.335Z,14.81
2018-04-30T20:16:09.113Z,14.89
2018-04-30T20:19:12.644Z,14.76
2018-04-30T20:22:16.656Z,14.64
2018-04-30T20:25:20.261Z,14.63
2018-04-30T20:28:23.841Z,14.64
2018-04-30T20:31:27.719Z,14.55
2018-04-30T20:34:31.279Z,14.52
2018-04-30T20:37:35.376Z,14.55
2018-04-30T20:40:38.724Z,14.42
2018-04-30T20:43:42.789Z,14.39
2018-04-30T20:46:46.080Z,14.33
2018-04-30T20:49:49.515Z,14.29
2018-04-30T20:52:52.766Z,14.26
2018-04-30T20:55:56.017Z,14.16
2018-04-30T20:58:59.298Z,14.21
2018-04-30T21:02:02.600Z,14.18
2018-04-30T21:05:05.912Z,13.95
2018-04-30T21:08:09.230Z,13.94
2018-04-30T21:11:12.689Z,13.98
2018-04-30T21:14:15.934Z,14.07
2018-04-30T21:17:19.997Z,14.02
2018-04-30T21:20:23.275Z,13.91
2018-04-30T21:23:27.640Z,13.88
2018-04-30T21:26:31.087Z,13.88
2018-04-30T21:29:35.475Z,13.80
2018-04-30T21:32:40.139Z,13.77
2018-04-30T21:35:44.411Z,13.65
2018-04-30T21:38:47.724Z,13.68
2018-04-30T21:41:51.734Z,13.76
2018-04-30T21:44:55.025Z,13.72
2018-04-30T21:47:58.277Z,13.65
2018-04-30T21:51:01.427Z,13.54
2018-04-30T21:54:04.708Z,13.40
2018-04-30T21:57:08.086Z,13.34
2018-04-30T22:00:11.414Z,13.43
2018-04-30T22:03:14.629Z,13.25
2018-04-30T22:06:17.977Z,13.26
2018-04-30T22:09:22.046Z,13.24
2018-04-30T22:12:25.378Z,13.28
2018-04-30T22:15:28.710Z,13.18
2018-04-30T22:18:32.252Z,13.16
2018-04-30T22:21:35.595Z,13.17
2018-04-30T22:24:38.911Z,13.10
2018-04-30T22:27:43.009Z,13.09
2018-04-30T22:30:46.738Z,12.93
2018-04-30T22:33:51.918Z,12.82
2018-04-30T22:36:56.136Z,12.76
2018-04-30T22:39:59.448Z,12.73
2018-04-30T22:43:03.597Z,12.78
2018-04-30T22:46:06.929Z,12.78
2018-04-30T22:49:10.159Z,12.74
2018-04-30T22:52:13.300Z,12.68
2018-04-30T22:55:17.271Z,12.69
2018-04-30T22:58:21.380Z,12.62
2018-04-30T23:01:24.811Z,12.65
2018-04-30T23:04:28.528Z,12.76
2018-04-30T23:07:32.960Z,12.85
2018-04-30T23:10:37.936Z,12.86
2018-04-30T23:13:41.240Z,12.86
2018-04-30T23:16:46.656Z,12.94
2018-04-30T23:19:51.209Z,12.80
2018-04-30T23:22:54.597Z,12.83
2018-04-30T23:25:57.873Z,12.78
2018-04-30T23:29:01.160Z,12.73
2018-04-30T23:32:04.883Z,12.79
2018-04-30T23:35:08.172Z,12.76
2018-04-30T23:38:11.472Z,12.85
2018-04-30T23:41:14.775Z,12.82
2018-04-30T23:44:18.229Z,12.82
2018-04-30T23:47:22.348Z,12.85
2018-04-30T23:50:53.671Z,12.76
2018-04-30T23:53:57.173Z,12.58
2018-04-30T23:57:00.444Z,12.62
